Time;durP1;ratioP1;P1;durP2;ratioP2;P2;SDS_P1;SDS_P2;PMS_P1;PMS_P2;Temp;Humidity;BMP_temperature;BMP_pressure;BME280_temperature;BME280_humidity;BME280_pressure;Samples;Min_cycle;Max_cycle;Signal;HPM_P1;HPM_P2
2021/04/10 04:45:34;;;;;;;4.28;1.90;;;;;;;;;;6281258;22;883552;-78
2021/04/10 04:48:00;;;;;;;4.20;1.52;;;;;;;;;;6317410;22;20105;-76
2021/04/10 04:50:26;;;;;;;4.32;1.42;;;;;;;;;;6318241;22;20005;-78
2021/04/10 04:52:51;;;;;;;5.97;1.45;;;;;;;;;;6317384;22;20014;-78
2021/04/10 04:55:17;;;;;;;4.40;1.42;;;;;;;;;;6314596;22;20316;-77
2021/04/10 04:57:43;;;;;;;3.28;1.20;;;;;;;;;;6286043;22;20007;-77
2021/04/10 05:00:09;;;;;;;6.05;1.85;;;;;;;;;;6286403;22;20114;-78
2021/04/10 05:02:34;;;;;;;4.80;1.38;;;;;;;;;;6286810;22;20090;-78
2021/04/10 05:05:00;;;;;;;3.80;1.50;;;;;;;;;;6285142;22;20005;-78
2021/04/10 05:07:25;;;;;;;3.97;1.38;;;;;;;;;;6285388;22;20397;-78
2021/04/10 05:09:51;;;;;;;3.33;1.10;;;;;;;;;;6268230;22;20011;-78
2021/04/10 05:12:17;;;;;;;3.10;1.33;;;;;;;;;;6254772;23;19996;-78
2021/04/10 05:14:42;;;;;;;5.07;2.20;;;;;;;;;;6253558;23;20023;-77
2021/04/10 05:17:08;;;;;;;3.70;1.38;;;;;;;;;;6254689;23;20031;-78
2021/04/10 05:19:34;;;;;;;3.63;1.27;;;;;;;;;;6229034;23;20014;-78
2021/04/10 05:21:59;;;;;;;5.80;1.63;;;;;;;;;;6253750;23;20035;-77
2021/04/10 05:24:25;;;;;;;5.05;1.23;;;;;;;;;;6254169;23;20082;-77
2021/04/10 05:26:51;;;;;;;6.78;1.48;;;;;;;;;;6254643;23;20008;-77
2021/04/10 05:29:16;;;;;;;4.07;1.42;;;;;;;;;;6254050;22;20501;-78
2021/04/10 05:31:42;;;;;;;3.45;1.52;;;;;;;;;;6227775;23;20039;-78
2021/04/10 05:34:08;;;;;;;5.60;1.60;;;;;;;;;;6227563;23;20008;-77
2021/04/10 05:36:33;;;;;;;4.63;2.15;;;;;;;;;;6253858;23;20040;-77
2021/04/10 05:38:59;;;;;;;5.80;1.48;;;;;;;;;;6254559;22;20075;-78
2021/04/10 05:41:25;;;;;;;7.40;1.67;;;;;;;;;;6254315;23;20090;-78
2021/04/10 05:43:50;;;;;;;4.53;1.85;;;;;;;;;;6247515;23;20000;-78
2021/04/10 05:46:18;;;;;;;5.07;1.70;;;;;;;;;;6247563;23;20034;-77
2021/04/10 05:48:43;;;;;;;5.88;1.50;;;;;;;;;;6247320;22;20008;-78
2021/04/10 05:51:09;;;;;;;6.30;1.58;;;;;;;;;;6248101;23;20008;-78
2021/04/10 05:53:35;;;;;;;4.50;1.50;;;;;;;;;;6248288;23;20091;-78
2021/04/10 05:56:01;;;;;;;3.58;1.45;;;;;;;;;;6248131;23;20000;-77
2021/04/10 05:58:26;;;;;;;5.07;1.65;;;;;;;;;;6247891;23;20000;-77
2021/04/10 06:00:52;;;;;;;4.07;1.33;;;;;;;;;;6248304;22;20020;-77
2021/04/10 06:03:18;;;;;;;5.35;2.88;;;;;;;;;;6247909;23;20011;-78
2021/04/10 06:05:45;;;;;;;8.45;5.05;;;;;;;;;;6247410;23;20032;-78
2021/04/10 06:08:10;;;;;;;7.82;4.13;;;;;;;;;;6245865;23;20031;-78
2021/04/10 06:10:36;;;;;;;35.15;21.73;;;;;;;;;;6246474;22;20004;-78
2021/04/10 06:13:01;;;;;;;12.13;6.95;;;;;;;;;;6246474;23;20047;-78
2021/04/10 06:15:27;;;;;;;8.27;3.17;;;;;;;;;;6241638;23;20022;-76
2021/04/10 06:17:53;;;;;;;4.57;1.50;;;;;;;;;;6243718;23;20030;-78
2021/04/10 06:20:19;;;;;;;5.57;1.77;;;;;;;;;;6218746;23;19997;-80
2021/04/10 06:22:44;;;;;;;3.25;1.20;;;;;;;;;;6246879;23;20426;-77
2021/04/10 06:25:10;;;;;;;7.75;2.38;;;;;;;;;;6244284;23;20004;-76
2021/04/10 06:27:36;;;;;;;3.83;2.00;;;;;;;;;;6245190;23;20004;-76
2021/04/10 06:30:03;;;;;;;2.83;1.23;;;;;;;;;;6244593;22;20423;-78
2021/04/10 06:32:28;;;;;;;3.97;1.60;;;;;;;;;;6247810;23;20000;-79
2021/04/10 06:34:54;;;;;;;3.90;2.40;;;;;;;;;;6246754;23;20070;-76
2021/04/10 06:37:20;;;;;;;3.47;1.50;;;;;;;;;;6245748;23;20004;-78
2021/04/10 06:39:46;;;;;;;5.80;2.30;;;;;;;;;;6246193;22;20027;-77
2021/04/10 06:42:11;;;;;;;4.82;1.48;;;;;;;;;;6218378;23;20058;-78
2021/04/10 06:44:37;;;;;;;2.85;1.40;;;;;;;;;;6245813;23;20031;-78
2021/04/10 06:47:03;;;;;;;4.13;2.10;;;;;;;;;;6246353;23;20082;-78
2021/04/10 06:49:30;;;;;;;3.58;1.58;;;;;;;;;;6246111;22;20030;-78
2021/04/10 06:51:56;;;;;;;5.75;1.88;;;;;;;;;;6246607;23;20003;-76
2021/04/10 06:54:24;;;;;;;4.15;1.63;;;;;;;;;;6245548;23;20011;-77
2021/04/10 06:57:10;;;;;;;2.88;1.23;;;;;;;;;;6245094;23;20000;-78
2021/04/10 06:59:51;;;;;;;4.28;1.52;;;;;;;;;;6222552;23;20091;-77
2021/04/10 07:02:17;;;;;;;3.90;1.27;;;;;;;;;;6245781;22;20387;-78
2021/04/10 07:04:43;;;;;;;3.65;1.08;;;;;;;;;;6244421;23;20011;-77
2021/04/10 07:07:09;;;;;;;2.60;1.05;;;;;;;;;;6245759;22;20486;-78
2021/04/10 07:09:36;;;;;;;3.35;1.08;;;;;;;;;;6245954;22;20008;-77
2021/04/10 07:12:03;;;;;;;3.42;1.30;;;;;;;;;;6246302;22;20406;-78
2021/04/10 07:14:29;;;;;;;2.92;1.20;;;;;;;;;;6245695;22;20004;-77
2021/04/10 07:16:56;;;;;;;3.65;1.02;;;;;;;;;;6245969;22;20054;-78
2021/04/10 07:19:22;;;;;;;4.20;1.50;;;;;;;;;;6243858;22;20034;-78
2021/04/10 07:22:04;;;;;;;3.10;1.10;;;;;;;;;;6246191;22;20000;-78
2021/04/10 07:24:36;;;;;;;3.15;1.20;;;;;;;;;;6245313;22;20008;-77
2021/04/10 07:27:02;;;;;;;3.30;1.17;;;;;;;;;;6245633;22;20338;-78
2021/04/10 07:29:30;;;;;;;3.92;1.15;;;;;;;;;;6246189;22;20007;-78
2021/04/10 07:31:56;;;;;;;3.53;1.23;;;;;;;;;;6247222;22;20058;-78
2021/04/10 07:34:22;;;;;;;3.75;1.38;;;;;;;;;;6243730;23;20038;-77
2021/04/10 07:36:58;;;;;;;3.70;1.10;;;;;;;;;;6245651;23;20011;-79
2021/04/10 07:39:24;;;;;;;3.88;1.33;;;;;;;;;;6247720;22;19996;-78
2021/04/10 07:42:03;;;;;;;3.10;1.35;;;;;;;;;;6245298;23;20046;-78
2021/04/10 07:44:38;;;;;;;8.35;3.83;;;;;;;;;;6246659;22;20008;-78
2021/04/10 07:47:04;;;;;;;6.53;2.05;;;;;;;;;;6247814;22;20419;-77
2021/04/10 07:49:30;;;;;;;10.10;3.70;;;;;;;;;;6247247;22;20090;-78
2021/04/10 07:51:57;;;;;;;7.10;3.08;;;;;;;;;;6247775;23;20405;-78
2021/04/10 07:54:24;;;;;;;4.45;1.40;;;;;;;;;;6245973;23;20008;-79
2021/04/10 07:56:53;;;;;;;5.68;3.30;;;;;;;;;;6245375;23;20008;-77
2021/04/10 07:59:18;;;;;;;6.65;3.80;;;;;;;;;;6246895;22;20453;-78
2021/04/10 08:01:44;;;;;;;4.97;3.40;;;;;;;;;;6220349;23;20031;-78
2021/04/10 08:04:14;;;;;;;9.27;2.70;;;;;;;;;;6246491;23;20034;-78
2021/04/10 08:06:52;;;;;;;4.68;1.90;;;;;;;;;;6245374;23;20054;-78
2021/04/10 08:09:26;;;;;;;2.63;1.50;;;;;;;;;;6243165;22;20011;-78
2021/04/10 08:11:52;;;;;;;8.80;2.50;;;;;;;;;;6243064;23;19996;-78
2021/04/10 08:14:17;;;;;;;3.15;1.40;;;;;;;;;;6243358;23;20054;-78
2021/04/10 08:16:50;;;;;;;4.28;2.63;;;;;;;;;;6243431;23;20092;-78
2021/04/10 08:19:16;;;;;;;11.18;6.97;;;;;;;;;;6243446;22;20004;-78
2021/04/10 08:21:44;;;;;;;9.27;6.65;;;;;;;;;;6243539;23;20000;-78
2021/04/10 08:24:30;;;;;;;6.20;3.67;;;;;;;;;;6216560;23;20011;-78
2021/04/10 08:27:03;;;;;;;4.28;2.50;;;;;;;;;;6216862;23;20012;-78
2021/04/10 08:29:29;;;;;;;6.07;2.13;;;;;;;;;;6244003;22;20000;-78
2021/04/10 08:31:55;;;;;;;5.18;1.77;;;;;;;;;;6243791;23;20064;-78
2021/04/10 08:34:21;;;;;;;3.45;1.60;;;;;;;;;;6243807;23;20008;-78
2021/04/10 08:36:52;;;;;;;3.35;1.25;;;;;;;;;;6242588;23;20000;-77
2021/04/10 08:39:18;;;;;;;2.65;1.38;;;;;;;;;;6241070;22;20007;-77
2021/04/10 08:41:46;;;;;;;5.32;2.00;;;;;;;;;;6241215;23;20058;-77
2021/04/10 08:44:14;;;;;;;5.40;2.10;;;;;;;;;;6241139;23;20011;-77
2021/04/10 08:46:41;;;;;;;5.45;2.10;;;;;;;;;;6241258;23;20007;-77
2021/04/10 08:49:07;;;;;;;8.35;1.80;;;;;;;;;;6241322;22;20015;-77
2021/04/10 08:51:38;;;;;;;5.65;1.55;;;;;;;;;;6241774;23;20000;-77
2021/04/10 08:54:06;;;;;;;5.30;1.77;;;;;;;;;;6241555;23;20004;-77
2021/04/10 08:56:32;;;;;;;5.55;2.20;;;;;;;;;;6241630;23;20000;-77
2021/04/10 08:59:18;;;;;;;4.05;1.70;;;;;;;;;;6241542;22;20422;-77
2021/04/10 09:01:45;;;;;;;8.93;1.63;;;;;;;;;;6241694;23;20007;-77
2021/04/10 09:04:11;;;;;;;4.40;1.80;;;;;;;;;;6241540;23;20083;-77
2021/04/10 09:06:36;;;;;;;3.97;1.42;;;;;;;;;;6241324;23;20012;-77
2021/04/10 09:09:26;;;;;;;3.60;1.55;;;;;;;;;;6241019;22;20027;-77
2021/04/10 09:12:11;;;;;;;4.47;1.15;;;;;;;;;;6225169;23;20000;-77
2021/04/10 09:14:44;;;;;;;3.85;1.40;;;;;;;;;;6240371;23;20005;-77
2021/04/10 09:17:10;;;;;;;5.00;2.03;;;;;;;;;;6241588;23;20004;-76
2021/04/10 09:19:35;;;;;;;3.95;1.40;;;;;;;;;;6243493;22;20610;-76
2021/04/10 09:24:26;;;;;;;2.88;1.50;;;;;;;;;;5067870;28;20369;-77
2021/04/10 09:27:00;;;;;;;4.30;1.40;;;;;;;;;;5064163;28;20075;-78
2021/04/10 09:29:27;;;;;;;3.10;1.27;;;;;;;;;;5062214;28;20029;-78
2021/04/10 09:31:57;;;;;;;7.18;1.92;;;;;;;;;;5059561;28;20009;-77
2021/04/10 09:34:41;;;;;;;7.30;2.58;;;;;;;;;;5056596;28;20017;-78
2021/04/10 09:37:07;;;;;;;4.30;2.20;;;;;;;;;;5058556;28;20048;-77
2021/04/10 09:39:59;;;;;;;3.72;1.65;;;;;;;;;;5056465;28;20021;-78
2021/04/10 09:42:24;;;;;;;;;;;;;;;;;;5057522;28;20022;-78
2021/04/10 09:45:08;;;;;;;3.58;1.70;;;;;;;;;;5070945;28;19913;-77
2021/04/10 09:47:55;;;;;;;3.95;1.42;;;;;;;;;;5061745;28;20021;-78
2021/04/10 09:50:21;;;;;;;2.97;1.50;;;;;;;;;;5064095;28;20017;-77
2021/04/10 09:52:56;;;;;;;3.63;1.40;;;;;;;;;;5066308;28;20078;-77
2021/04/10 09:55:23;;;;;;;10.20;3.50;;;;;;;;;;5064593;28;20024;-77
2021/04/10 09:57:59;;;;;;;4.30;2.35;;;;;;;;;;5062088;28;20438;-78
2021/04/10 10:00:28;;;;;;;9.93;4.50;;;;;;;;;;5065372;28;20064;-78
2021/04/10 10:02:57;;;;;;;5.05;2.30;;;;;;;;;;5055743;28;20060;-78
2021/04/10 10:05:24;;;;;;;3.97;2.22;;;;;;;;;;5065685;28;20056;-77
2021/04/10 10:07:50;;;;;;;4.95;1.70;;;;;;;;;;5052230;28;20473;-77
2021/04/10 10:10:16;;;;;;;3.45;1.30;;;;;;;;;;5058780;28;20021;-77
2021/04/10 10:12:42;;;;;;;13.60;2.05;;;;;;;;;;5064658;28;20053;-77
2021/04/10 10:15:28;;;;;;;3.63;1.30;;;;;;;;;;5058494;28;20043;-77
2021/04/10 10:17:54;;;;;;;3.35;1.40;;;;;;;;;;5052551;28;20106;-78
2021/04/10 10:20:20;;;;;;;2.63;1.40;;;;;;;;;;5058755;28;20021;-78
2021/04/10 10:22:45;;;;;;;5.15;1.67;;;;;;;;;;5057378;28;20029;-76
2021/04/10 10:25:11;;;;;;;3.85;1.88;;;;;;;;;;5054304;28;20033;-77
2021/04/10 10:27:38;;;;;;;4.00;1.75;;;;;;;;;;5056324;28;20021;-77
2021/04/10 10:30:14;;;;;;;3.13;1.65;;;;;;;;;;5058133;28;20017;-77
2021/04/10 10:32:47;;;;;;;3.47;2.00;;;;;;;;;;5056694;28;20025;-77
2021/04/10 10:35:14;;;;;;;9.93;4.07;;;;;;;;;;5047071;28;20075;-77
2021/04/10 10:37:39;;;;;;;11.48;5.20;;;;;;;;;;5043042;28;20049;-77
2021/04/10 10:42:25;;;;;;;4.25;2.00;;;;;;;;;;5062560;28;20388;-77
2021/04/10 10:44:51;;;;;;;5.18;2.72;;;;;;;;;;5051159;28;20445;-78
2021/04/10 10:47:17;;;;;;;5.28;2.47;;;;;;;;;;5066107;28;20103;-79
2021/04/10 10:49:48;;;;;;;5.65;2.38;;;;;;;;;;5067039;28;20548;-78
2021/04/10 10:52:15;;;;;;;2.78;1.50;;;;;;;;;;5067357;28;20029;-78
2021/04/10 10:54:42;;;;;;;3.47;1.35;;;;;;;;;;5067565;28;20021;-78
2021/04/10 10:57:12;;;;;;;3.58;1.38;;;;;;;;;;5070712;28;20021;-78
2021/04/10 11:12:33;;;;;;;5.85;1.98;;;;;;;;;;5029875;28;20046;-90
2021/04/10 11:15:01;;;;;;;4.10;1.88;;;;;;;;;;5013705;28;20060;-89
2021/04/10 11:17:32;;;;;;;4.30;1.70;;;;;;;;;;5012932;28;20533;-89
2021/04/10 11:19:59;;;;;;;5.30;2.08;;;;;;;;;;5013483;28;20021;-88
2021/04/10 11:22:26;;;;;;;4.90;1.85;;;;;;;;;;5012874;28;20076;-90
2021/04/10 11:24:52;;;;;;;5.03;1.88;;;;;;;;;;5031659;28;20549;-89
2021/04/10 11:27:23;;;;;;;8.60;3.00;;;;;;;;;;5013546;28;20336;-89
2021/04/10 11:29:51;;;;;;;5.03;1.90;;;;;;;;;;5013566;28;20021;-88
2021/04/10 11:32:20;;;;;;;5.35;1.80;;;;;;;;;;5013971;28;20378;-89
2021/04/10 11:34:49;;;;;;;5.50;2.17;;;;;;;;;;5030399;28;20032;-90
2021/04/10 11:37:16;;;;;;;3.22;1.45;;;;;;;;;;5012787;28;20026;-89
2021/04/10 11:39:51;;;;;;;3.97;1.65;;;;;;;;;;5029863;28;20045;-89
2021/04/10 11:42:21;;;;;;;4.47;1.77;;;;;;;;;;5013087;28;20075;-89
2021/04/10 11:44:47;;;;;;;2.80;1.50;;;;;;;;;;5010729;28;20021;-89
2021/04/10 11:47:18;;;;;;;4.47;2.20;;;;;;;;;;5011084;28;20426;-89
2021/04/10 11:49:44;;;;;;;5.32;3.28;;;;;;;;;;5008643;28;20021;-89
2021/04/10 11:52:10;;;;;;;10.57;2.30;;;;;;;;;;5006530;28;20489;-89
2021/04/10 11:54:36;;;;;;;4.07;1.70;;;;;;;;;;4998068;28;20049;-89
2021/04/10 11:57:02;;;;;;;4.90;1.90;;;;;;;;;;5015894;28;20207;-89
2021/04/10 11:59:39;;;;;;;3.80;1.80;;;;;;;;;;4997613;28;20096;-90
2021/04/10 12:02:05;;;;;;;3.95;1.48;;;;;;;;;;4997459;28;20056;-88
2021/04/10 12:04:34;;;;;;;7.30;1.50;;;;;;;;;;4991601;28;20130;-89
2021/04/10 12:07:18;;;;;;;7.03;1.45;;;;;;;;;;4994886;28;20433;-89
2021/04/10 12:09:43;;;;;;;4.93;1.90;;;;;;;;;;4997813;28;20022;-89
2021/04/10 12:12:12;;;;;;;5.22;1.55;;;;;;;;;;4996905;28;20123;-88
2021/04/10 12:14:42;;;;;;;5.50;1.75;;;;;;;;;;4994957;28;20572;-89
2021/04/10 12:17:12;;;;;;;6.30;3.20;;;;;;;;;;4996449;28;20056;-89
2021/04/10 12:19:38;;;;;;;4.55;2.60;;;;;;;;;;4989399;28;20119;-89
2021/04/10 12:22:03;;;;;;;6.70;2.78;;;;;;;;;;5011077;28;20029;-89
2021/04/10 12:37:12;;;;;;;6.85;2.75;;;;;;;;;;5101968;27;20398;-89
2021/04/10 12:39:38;;;;;;;4.20;1.70;;;;;;;;;;5085970;28;20040;-90
2021/04/10 12:42:04;;;;;;;5.13;1.40;;;;;;;;;;5078413;28;20067;-88
2021/04/10 12:44:30;;;;;;;3.75;1.63;;;;;;;;;;5083074;28;20020;-90
2021/04/10 12:46:55;;;;;;;5.50;1.98;;;;;;;;;;5081434;28;20142;-89
2021/04/10 12:49:21;;;;;;;3.65;1.80;;;;;;;;;;5083794;28;20103;-89
2021/04/10 12:51:47;;;;;;;6.88;2.33;;;;;;;;;;5085198;28;20039;-89
2021/04/10 12:54:12;;;;;;;3.92;1.70;;;;;;;;;;5075261;28;20016;-89
2021/04/10 12:56:38;;;;;;;6.15;1.80;;;;;;;;;;5081854;28;20042;-90
2021/04/10 12:59:04;;;;;;;3.17;1.70;;;;;;;;;;5061513;28;19908;-90
2021/04/10 13:03:48;;;;;;;4.47;1.80;;;;;;;;;;5087306;27;20356;-90
2021/04/10 13:06:14;;;;;;;4.15;2.20;;;;;;;;;;5085487;28;20025;-90
2021/04/10 13:08:39;;;;;;;2.53;1.42;;;;;;;;;;5064215;28;20028;-91
2021/04/10 13:11:05;;;;;;;4.25;1.50;;;;;;;;;;5068441;28;20021;-90
2021/04/10 13:13:30;;;;;;;4.10;1.70;;;;;;;;;;5062484;28;20521;-90
2021/04/10 13:15:56;;;;;;;3.95;1.75;;;;;;;;;;5057318;28;20111;-89
2021/04/10 13:18:22;;;;;;;4.32;1.05;;;;;;;;;;5063365;28;20017;-90
2021/04/10 13:20:48;;;;;;;3.92;1.60;;;;;;;;;;5072318;28;20036;-90
2021/04/10 13:23:13;;;;;;;4.05;1.73;;;;;;;;;;5063786;28;20025;-90
2021/04/10 13:25:39;;;;;;;5.88;2.10;;;;;;;;;;5059924;28;21406;-90
2021/04/10 13:28:05;;;;;;;5.40;2.30;;;;;;;;;;5064206;28;20009;-89
2021/04/10 13:30:31;;;;;;;4.63;1.80;;;;;;;;;;5066523;28;20446;-90
2021/04/10 13:32:56;;;;;;;4.38;1.33;;;;;;;;;;5068617;28;20025;-90
2021/04/10 13:35:25;;;;;;;5.60;2.22;;;;;;;;;;5068600;28;20021;-90
2021/04/10 13:37:51;;;;;;;4.10;2.15;;;;;;;;;;5065013;28;20116;-91
2021/04/10 13:40:17;;;;;;;3.40;1.42;;;;;;;;;;5069182;28;20043;-91
2021/04/10 13:42:42;;;;;;;3.97;1.63;;;;;;;;;;5066640;28;20025;-90
2021/04/10 13:45:08;;;;;;;3.92;1.60;;;;;;;;;;5067051;28;20125;-90
2021/04/10 13:47:34;;;;;;;3.67;1.63;;;;;;;;;;5068819;28;20013;-89
2021/04/10 13:50:00;;;;;;;5.55;1.30;;;;;;;;;;5066369;28;20107;-90
2021/04/10 13:52:25;;;;;;;2.72;1.38;;;;;;;;;;5061536;28;20116;-90
2021/04/10 13:54:51;;;;;;;3.90;1.40;;;;;;;;;;5067614;28;20484;-90
2021/04/10 13:57:17;;;;;;;2.28;1.20;;;;;;;;;;5063481;28;20021;-91
2021/04/10 13:59:44;;;;;;;3.25;1.20;;;;;;;;;;5087272;28;20028;-90
2021/04/10 14:02:10;;;;;;;5.13;1.80;;;;;;;;;;5083782;28;20072;-90
2021/04/10 14:04:56;;;;;;;2.60;1.25;;;;;;;;;;5070312;28;20075;-90
2021/04/10 14:07:21;;;;;;;4.97;1.42;;;;;;;;;;5067891;28;20058;-87
2021/04/10 14:09:47;;;;;;;3.30;1.52;;;;;;;;;;5071516;28;20031;-90
2021/04/10 14:12:13;;;;;;;3.92;1.33;;;;;;;;;;5062421;28;20111;-90
2021/04/10 14:14:38;;;;;;;3.63;1.35;;;;;;;;;;5058800;28;20021;-90
2021/04/10 14:17:04;;;;;;;2.42;1.20;;;;;;;;;;5053004;28;20025;-90
2021/04/10 14:19:30;;;;;;;6.93;2.17;;;;;;;;;;5053902;28;20029;-91
2021/04/10 14:21:57;;;;;;;5.13;1.60;;;;;;;;;;5056292;28;20473;-90
2021/04/10 14:24:23;;;;;;;4.63;1.55;;;;;;;;;;5057163;28;20500;-91
2021/04/10 14:26:49;;;;;;;2.60;1.20;;;;;;;;;;5052667;28;20017;-90
2021/04/10 14:29:15;;;;;;;5.65;1.60;;;;;;;;;;5050264;28;20100;-90
2021/04/10 14:31:41;;;;;;;5.47;1.40;;;;;;;;;;5046305;28;20025;-90
2021/04/10 14:34:07;;;;;;;4.03;1.30;;;;;;;;;;5057578;28;20023;-90
2021/04/10 14:36:33;;;;;;;4.15;1.38;;;;;;;;;;5055966;28;20123;-90
2021/04/10 14:38:59;;;;;;;2.58;1.30;;;;;;;;;;5051612;28;20017;-90
2021/04/10 14:41:26;;;;;;;3.92;1.60;;;;;;;;;;5051622;28;20021;-91
2021/04/10 14:43:51;;;;;;;2.85;1.30;;;;;;;;;;5056078;28;20032;-90
2021/04/10 14:46:17;;;;;;;3.58;1.30;;;;;;;;;;5048438;28;20009;-91
2021/04/10 14:48:45;;;;;;;2.22;1.05;;;;;;;;;;5059422;28;20021;-90
2021/04/10 14:51:11;;;;;;;3.13;1.27;;;;;;;;;;5057187;28;20029;-90
2021/04/10 14:53:40;;;;;;;4.30;1.83;;;;;;;;;;5057146;28;20027;-91
2021/04/10 14:56:08;;;;;;;5.32;1.70;;;;;;;;;;5055254;28;20016;-91
2021/04/10 14:58:34;;;;;;;3.30;1.52;;;;;;;;;;5051058;28;20389;-85
2021/04/10 15:00:59;;;;;;;3.22;1.15;;;;;;;;;;5052065;28;20067;-83
2021/04/10 15:03:26;;;;;;;10.52;2.72;;;;;;;;;;5055572;28;20029;-83
2021/04/10 15:06:02;;;;;;;7.03;2.63;;;;;;;;;;5050471;28;20017;-84
2021/04/10 15:08:28;;;;;;;4.18;1.70;;;;;;;;;;5048044;28;20021;-84
2021/04/10 15:10:55;;;;;;;4.32;1.50;;;;;;;;;;5046605;28;20553;-84
2021/04/10 15:13:21;;;;;;;5.95;1.75;;;;;;;;;;5051726;28;20028;-84
2021/04/10 15:15:47;;;;;;;4.57;2.10;;;;;;;;;;5048516;28;20050;-85
2021/04/10 15:18:12;;;;;;;4.88;2.80;;;;;;;;;;5051450;28;20104;-83
2021/04/10 15:20:38;;;;;;;4.57;2.50;;;;;;;;;;5048319;28;20039;-82
2021/04/10 15:23:04;;;;;;;4.13;1.95;;;;;;;;;;5049355;28;20048;-82
2021/04/10 15:25:30;;;;;;;3.30;1.92;;;;;;;;;;5048451;28;20020;-82
2021/04/10 15:27:56;;;;;;;3.83;1.75;;;;;;;;;;5054079;28;20384;-83
2021/04/10 15:30:22;;;;;;;4.05;1.98;;;;;;;;;;5053639;28;20051;-81
2021/04/10 15:32:51;;;;;;;3.60;1.70;;;;;;;;;;5050747;28;20436;-83
2021/04/10 15:35:17;;;;;;;4.57;1.98;;;;;;;;;;5047213;28;20075;-82
2021/04/10 15:37:43;;;;;;;3.70;2.15;;;;;;;;;;5047689;28;20033;-83
2021/04/10 15:40:09;;;;;;;4.18;1.77;;;;;;;;;;5043430;28;20020;-83
2021/04/10 15:42:34;;;;;;;6.68;2.85;;;;;;;;;;5043452;28;20052;-82
2021/04/10 15:45:00;;;;;;;3.42;1.60;;;;;;;;;;5051686;28;20380;-82
2021/04/10 15:47:26;;;;;;;10.60;1.83;;;;;;;;;;5050024;28;20021;-83
2021/04/10 15:49:51;;;;;;;3.33;1.45;;;;;;;;;;5043223;28;20497;-83
2021/04/10 15:52:18;;;;;;;4.50;1.58;;;;;;;;;;5044965;28;20633;-83
2021/04/10 15:57:04;;;;;;;3.00;1.70;;;;;;;;;;5106223;27;20391;-81
2021/04/10 15:59:30;;;;;;;4.60;2.00;;;;;;;;;;5096682;28;20035;-82
2021/04/10 16:01:56;;;;;;;4.93;2.80;;;;;;;;;;5093183;28;20016;-82
2021/04/10 16:04:21;;;;;;;4.70;2.22;;;;;;;;;;5090671;28;20068;-82
2021/04/10 16:06:47;;;;;;;3.25;1.90;;;;;;;;;;5092827;28;20536;-82
2021/04/10 16:11:48;;;;;;;4.03;1.60;;;;;;;;;;5120541;22;20059;-84
2021/04/10 16:17:17;;;;;;;5.22;1.65;;;;;;;;;;5114095;28;20124;-82
2021/04/10 16:19:43;;;;;;;4.28;1.70;;;;;;;;;;5084954;28;20024;-82
2021/04/10 16:22:17;;;;;;;3.80;1.30;;;;;;;;;;5071245;28;20028;-82
2021/04/10 16:24:43;;;;;;;3.30;1.40;;;;;;;;;;5071434;28;20022;-81
2021/04/10 16:27:09;;;;;;;4.30;2.38;;;;;;;;;;5079664;28;20046;-82
2021/04/10 16:29:35;;;;;;;4.72;1.88;;;;;;;;;;5081521;28;20607;-82
2021/04/10 16:34:19;;;;;;;3.13;1.70;;;;;;;;;;5104926;27;21078;-82
2021/04/10 16:36:45;;;;;;;3.92;2.25;;;;;;;;;;5085374;28;20043;-81
2021/04/10 16:39:10;;;;;;;4.43;1.65;;;;;;;;;;5087556;28;20028;-82
2021/04/10 16:41:37;;;;;;;4.43;2.17;;;;;;;;;;5088098;28;20087;-82
2021/04/10 16:44:03;;;;;;;3.55;1.52;;;;;;;;;;5084993;28;20020;-81
2021/04/10 16:46:28;;;;;;;4.18;1.70;;;;;;;;;;5088279;28;20333;-82
2021/04/10 16:48:57;;;;;;;11.23;6.65;;;;;;;;;;5105731;28;20432;-82
2021/04/10 16:51:23;;;;;;;15.88;8.75;;;;;;;;;;5083806;28;20028;-84
2021/04/10 16:53:49;;;;;;;12.23;6.45;;;;;;;;;;5106492;28;20075;-83
2021/04/10 16:56:14;;;;;;;7.05;3.63;;;;;;;;;;5089744;28;20025;-83
2021/04/10 16:58:40;;;;;;;10.73;6.60;;;;;;;;;;5089680;28;20012;-83
2021/04/10 17:01:06;;;;;;;5.95;2.90;;;;;;;;;;5089778;28;20033;-84
2021/04/10 17:03:32;;;;;;;5.05;3.10;;;;;;;;;;5084541;28;20056;-84
2021/04/10 17:05:58;;;;;;;7.20;3.58;;;;;;;;;;5084288;28;20059;-83
2021/04/10 17:08:24;;;;;;;4.68;2.50;;;;;;;;;;5085353;28;20059;-83
2021/04/10 17:10:50;;;;;;;4.05;1.98;;;;;;;;;;5083260;28;20428;-84
2021/04/10 17:13:16;;;;;;;5.53;2.20;;;;;;;;;;5083926;28;20020;-84
2021/04/10 17:15:43;;;;;;;3.70;2.00;;;;;;;;;;5088762;28;20077;-84
2021/04/10 17:18:09;;;;;;;5.15;1.42;;;;;;;;;;5077433;28;20469;-84
2021/04/10 17:20:35;;;;;;;4.32;2.13;;;;;;;;;;5087092;28;20025;-84
2021/04/10 17:23:06;;;;;;;5.13;2.10;;;;;;;;;;5083257;28;20044;-83
2021/04/10 17:25:32;;;;;;;3.28;2.13;;;;;;;;;;5080805;28;20098;-84
2021/04/10 17:27:58;;;;;;;3.72;1.92;;;;;;;;;;5081473;28;20019;-83
2021/04/10 17:30:24;;;;;;;3.53;1.60;;;;;;;;;;5097141;28;20016;-83
2021/04/10 17:32:49;;;;;;;3.92;1.42;;;;;;;;;;5080656;28;20093;-84
2021/04/10 17:35:16;;;;;;;4.00;1.85;;;;;;;;;;5081679;28;20036;-83
2021/04/10 17:37:42;;;;;;;4.47;1.65;;;;;;;;;;5081900;28;20021;-84
2021/04/10 17:40:08;;;;;;;3.05;1.35;;;;;;;;;;5086906;28;20026;-83
2021/04/10 17:42:36;;;;;;;3.03;1.58;;;;;;;;;;5086799;28;20033;-84
2021/04/10 17:45:04;;;;;;;3.25;1.42;;;;;;;;;;5067911;28;20036;-84
2021/04/10 17:47:29;;;;;;;4.32;2.20;;;;;;;;;;5069790;28;20031;-84
2021/04/10 17:49:55;;;;;;;5.15;2.45;;;;;;;;;;5067325;28;20822;-84
2021/04/10 17:52:21;;;;;;;3.47;1.80;;;;;;;;;;5072384;28;20088;-83
2021/04/10 17:54:46;;;;;;;3.78;1.90;;;;;;;;;;5068774;28;20029;-84
2021/04/10 17:57:12;;;;;;;4.60;2.00;;;;;;;;;;5076653;28;20127;-83
2021/04/10 17:59:38;;;;;;;4.63;1.70;;;;;;;;;;5075373;28;20116;-83
2021/04/10 18:17:21;;;;;;;5.18;2.45;;;;;;;;;;5087326;28;20027;-84
2021/04/10 18:19:46;;;;;;;4.53;2.28;;;;;;;;;;5070317;28;20021;-84
2021/04/10 18:22:12;;;;;;;4.00;2.22;;;;;;;;;;5063443;28;20027;-83
2021/04/10 18:24:38;;;;;;;4.63;1.77;;;;;;;;;;5068600;28;20089;-83
2021/04/10 18:27:04;;;;;;;4.63;2.25;;;;;;;;;;5065896;28;20047;-83
2021/04/10 18:29:29;;;;;;;4.60;2.50;;;;;;;;;;5065978;28;20024;-83
2021/04/10 18:31:56;;;;;;;3.25;2.13;;;;;;;;;;5091197;28;20085;-83
2021/04/10 18:34:22;;;;;;;3.53;1.70;;;;;;;;;;5079130;28;20376;-83
2021/04/10 18:36:48;;;;;;;4.60;1.83;;;;;;;;;;5087076;28;20050;-83
2021/04/10 18:39:16;;;;;;;3.55;1.63;;;;;;;;;;5059655;28;20025;-83
2021/04/10 18:41:42;;;;;;;3.05;1.42;;;;;;;;;;5086078;28;20047;-83
2021/04/10 18:44:07;;;;;;;5.20;1.02;;;;;;;;;;5078153;28;20031;-83
2021/04/10 18:46:33;;;;;;;2.60;1.40;;;;;;;;;;5064228;28;20060;-83
2021/04/10 18:48:59;;;;;;;3.42;1.40;;;;;;;;;;5091001;28;19918;-83
2021/04/10 18:51:25;;;;;;;7.20;2.22;;;;;;;;;;5061274;28;20761;-83
2021/04/10 18:53:51;;;;;;;4.55;1.88;;;;;;;;;;5059315;28;20028;-84
2021/04/10 18:56:18;;;;;;;5.82;1.90;;;;;;;;;;5055789;28;20376;-84
2021/04/10 18:58:45;;;;;;;4.30;2.13;;;;;;;;;;5063344;28;20062;-84
2021/04/10 19:01:10;;;;;;;3.22;1.85;;;;;;;;;;5061110;28;20527;-84
2021/04/10 19:03:36;;;;;;;3.78;1.75;;;;;;;;;;5067102;28;20024;-84
2021/04/10 19:06:02;;;;;;;3.33;1.70;;;;;;;;;;5087964;28;20027;-82
2021/04/10 19:08:28;;;;;;;3.90;1.52;;;;;;;;;;5068064;28;20055;-84
2021/04/10 19:10:56;;;;;;;3.53;2.22;;;;;;;;;;5062571;28;20082;-84
2021/04/10 19:13:23;;;;;;;3.97;1.80;;;;;;;;;;5055607;28;20012;-84
2021/04/10 19:15:49;;;;;;;9.88;6.47;;;;;;;;;;5055931;28;20056;-84
2021/04/10 19:18:15;;;;;;;14.95;9.35;;;;;;;;;;5061730;28;20048;-84
2021/04/10 19:20:40;;;;;;;8.20;4.28;;;;;;;;;;5064304;28;20024;-83
2021/04/10 19:23:07;;;;;;;5.68;3.60;;;;;;;;;;5076051;28;20543;-84
2021/04/10 19:25:35;;;;;;;4.80;2.90;;;;;;;;;;5082234;28;20020;-84
2021/04/10 19:28:02;;;;;;;5.82;2.63;;;;;;;;;;5066310;28;20019;-83
2021/04/10 19:30:27;;;;;;;3.97;2.47;;;;;;;;;;5062056;28;20666;-84
2021/04/10 19:32:53;;;;;;;4.75;2.80;;;;;;;;;;5082330;28;20031;-84
2021/04/10 19:35:18;;;;;;;4.43;2.60;;;;;;;;;;5065096;28;20494;-84
2021/04/10 19:37:44;;;;;;;4.97;2.67;;;;;;;;;;5055277;28;20416;-85
2021/04/10 19:40:10;;;;;;;4.93;1.58;;;;;;;;;;5058252;28;20032;-84
2021/04/10 19:42:36;;;;;;;3.15;1.65;;;;;;;;;;5065563;28;20024;-84
2021/04/10 19:45:02;;;;;;;4.50;2.30;;;;;;;;;;5065219;28;20103;-84
2021/04/10 19:47:28;;;;;;;2.60;1.30;;;;;;;;;;5058564;28;20075;-85
2021/04/10 19:49:54;;;;;;;3.78;1.80;;;;;;;;;;5063643;28;20476;-84
2021/04/10 19:52:19;;;;;;;4.90;2.50;;;;;;;;;;5082474;28;20027;-84
2021/04/10 19:54:46;;;;;;;3.40;1.17;;;;;;;;;;5061061;28;20078;-83
2021/04/10 19:57:12;;;;;;;6.47;2.58;;;;;;;;;;5060783;28;20040;-84
2021/04/10 19:59:39;;;;;;;9.57;4.93;;;;;;;;;;5054668;28;20028;-83
2021/04/10 20:02:05;;;;;;;5.47;2.95;;;;;;;;;;5082089;28;20435;-85
2021/04/10 20:04:30;;;;;;;4.70;2.08;;;;;;;;;;5077609;28;20052;-84
2021/04/10 20:06:56;;;;;;;5.60;2.47;;;;;;;;;;5060443;28;20028;-84
2021/04/10 20:09:23;;;;;;;3.83;1.98;;;;;;;;;;5060117;28;20556;-84
2021/04/10 20:11:49;;;;;;;6.07;2.13;;;;;;;;;;5062240;28;20063;-84
2021/04/10 20:14:16;;;;;;;4.38;1.42;;;;;;;;;;5064227;28;20040;-84
2021/04/10 20:16:41;;;;;;;5.10;1.98;;;;;;;;;;5059365;28;20541;-84
2021/04/10 20:19:10;;;;;;;5.07;2.05;;;;;;;;;;5081791;28;20027;-83
2021/04/10 20:21:37;;;;;;;5.22;1.90;;;;;;;;;;5083999;28;20028;-83
2021/04/10 20:24:03;;;;;;;7.47;1.80;;;;;;;;;;5061884;28;20037;-84
2021/04/10 20:26:31;;;;;;;4.90;2.40;;;;;;;;;;5061400;28;20506;-84